createdAt,value
2023-05-03T00:00:12.624Z,3.75
2023-05-03T00:02:40.270Z,3.68
2023-05-03T00:05:12.809Z,3.62
2023-05-03T00:07:41.897Z,3.62
2023-05-03T00:10:10.690Z,3.52
2023-05-03T00:12:39.548Z,3.43
2023-05-03T00:15:07.139Z,3.39
2023-05-03T00:17:33.678Z,2.97
2023-05-03T00:20:00.439Z,3.25
2023-05-03T00:22:27.980Z,3.21
2023-05-03T00:24:54.737Z,3.29
2023-05-03T00:27:21.270Z,2.90
2023-05-03T00:29:51.518Z,3.14
2023-05-03T00:32:22.845Z,3.22
2023-05-03T00:34:53.935Z,3.13
2023-05-03T00:37:21.210Z,3.13
2023-05-03T00:39:47.825Z,2.89
2023-05-03T00:42:14.357Z,2.75
2023-05-03T00:44:40.899Z,2.95
2023-05-03T00:47:08.469Z,2.89
2023-05-03T00:49:35.434Z,2.91
2023-05-03T00:52:02.663Z,2.72
2023-05-03T00:54:30.093Z,2.98
2023-05-03T00:56:57.013Z,3.20
2023-05-03T00:59:23.612Z,3.06
2023-05-03T01:01:52.113Z,3.04
2023-05-03T01:04:20.412Z,2.60
2023-05-03T01:07:06.506Z,2.85
2023-05-03T01:09:49.191Z,2.60
2023-05-03T01:12:55.652Z,2.63
2023-05-03T01:15:48.393Z,2.69
2023-05-03T01:18:20.322Z,2.57
2023-05-03T01:20:49.394Z,2.50
2023-05-03T01:23:54.623Z,2.53
2023-05-03T01:26:22.930Z,2.40
2023-05-03T01:28:49.805Z,2.54
2023-05-03T01:31:23.805Z,2.47
2023-05-03T01:34:15.642Z,2.36
2023-05-03T01:36:46.140Z,2.38
2023-05-03T01:39:21.120Z,2.33
2023-05-03T01:41:50.535Z,2.15
2023-05-03T01:44:18.315Z,2.00
2023-05-03T01:46:45.877Z,2.28
2023-05-03T01:49:13.276Z,1.91
2023-05-03T01:51:39.986Z,2.23
2023-05-03T01:54:06.781Z,2.15
2023-05-03T01:56:36.322Z,2.11
2023-05-03T01:59:03.985Z,2.02
2023-05-03T02:01:30.848Z,1.83
2023-05-03T02:03:57.498Z,1.95
2023-05-03T02:06:26.001Z,1.70
2023-05-03T02:08:53.433Z,1.83
2023-05-03T02:11:21.580Z,1.59
2023-05-03T02:13:49.956Z,1.91
2023-05-03T02:16:18.389Z,1.85
2023-05-03T02:18:45.190Z,1.60
2023-05-03T02:21:12.144Z,1.39
2023-05-03T02:23:39.269Z,1.71
2023-05-03T02:26:06.667Z,1.45
2023-05-03T02:28:33.283Z,1.36
2023-05-03T02:30:59.805Z,1.55
2023-05-03T02:33:26.371Z,1.40
2023-05-03T02:35:52.984Z,1.34
2023-05-03T02:38:19.467Z,1.38
2023-05-03T02:40:45.971Z,1.49
2023-05-03T02:43:12.464Z,1.41
2023-05-03T02:45:39.000Z,1.15
2023-05-03T02:48:06.205Z,1.27
2023-05-03T02:50:32.756Z,1.44
2023-05-03T02:52:59.316Z,1.35
2023-05-03T02:55:26.215Z,1.32
2023-05-03T02:57:52.734Z,1.39
2023-05-03T03:00:19.629Z,1.43
2023-05-03T03:02:46.595Z,1.38
2023-05-03T03:05:13.483Z,0.99
2023-05-03T03:07:40.371Z,1.32
2023-05-03T03:10:08.267Z,1.33
2023-05-03T03:12:38.135Z,1.14
2023-05-03T03:15:05.309Z,1.06
2023-05-03T03:17:32.143Z,0.75
2023-05-03T03:19:58.708Z,1.08
2023-05-03T03:22:26.887Z,1.15
2023-05-03T03:24:53.594Z,0.84
2023-05-03T03:27:21.992Z,1.07
2023-05-03T03:29:48.546Z,0.95
2023-05-03T03:32:15.529Z,0.99
2023-05-03T03:34:42.192Z,1.05
2023-05-03T03:37:08.713Z,1.15
2023-05-03T03:39:35.487Z,1.08
2023-05-03T03:42:03.786Z,1.10
2023-05-03T03:44:30.319Z,1.03
2023-05-03T03:46:56.830Z,1.03
2023-05-03T03:49:24.132Z,1.06
2023-05-03T03:51:50.801Z,1.10
2023-05-03T03:54:17.323Z,0.79
2023-05-03T03:56:44.030Z,0.94
2023-05-03T03:59:10.743Z,1.01
2023-05-03T04:01:37.330Z,1.02
2023-05-03T04:04:04.878Z,0.91
2023-05-03T04:06:33.127Z,0.85
2023-05-03T04:08:59.648Z,1.03
2023-05-03T04:11:26.311Z,0.96
2023-05-03T04:13:52.883Z,0.94
2023-05-03T04:16:19.419Z,1.11
2023-05-03T04:18:45.965Z,1.14
2023-05-03T04:21:12.564Z,0.87
2023-05-03T04:23:39.454Z,0.24
2023-05-03T04:26:06.557Z,0.99
2023-05-03T04:28:34.093Z,0.96
2023-05-03T04:31:00.806Z,1.03
2023-05-03T04:33:30.153Z,1.08
2023-05-03T04:35:57.185Z,1.09
2023-05-03T04:38:23.918Z,1.05
2023-05-03T04:40:50.419Z,1.16
2023-05-03T04:43:18.482Z,0.94
2023-05-03T04:45:45.044Z,0.95
2023-05-03T04:48:11.603Z,1.18
2023-05-03T04:50:38.359Z,1.27
2023-05-03T04:53:04.963Z,1.26
2023-05-03T04:55:31.741Z,1.41
2023-05-03T04:57:58.372Z,1.44
2023-05-03T05:00:25.176Z,1.48
2023-05-03T05:02:51.839Z,1.47
2023-05-03T05:05:20.272Z,1.74
2023-05-03T05:07:47.912Z,1.92
2023-05-03T05:10:17.184Z,2.07
2023-05-03T05:12:43.767Z,2.12
2023-05-03T05:15:11.024Z,2.24
2023-05-03T05:17:37.700Z,2.35
2023-05-03T05:20:07.341Z,2.53
2023-05-03T05:22:34.518Z,2.52
2023-05-03T05:25:01.012Z,2.88
2023-05-03T05:27:28.089Z,2.84
2023-05-03T05:29:54.637Z,2.87
2023-05-03T05:32:22.450Z,3.07
2023-05-03T05:34:55.185Z,3.37
2023-05-03T05:37:23.029Z,3.34
2023-05-03T05:39:49.679Z,3.45
2023-05-03T05:42:16.217Z,3.43
2023-05-03T05:44:43.137Z,3.83
2023-05-03T05:47:10.139Z,4.10
2023-05-03T05:49:36.997Z,4.35
2023-05-03T05:52:03.587Z,4.32
2023-05-03T05:54:30.604Z,4.81
2023-05-03T05:56:58.152Z,5.03
2023-05-03T05:59:24.712Z,6.59
2023-05-03T06:01:54.378Z,7.44
2023-05-03T06:04:20.988Z,6.79
2023-05-03T06:06:48.094Z,7.14
2023-05-03T06:09:24.161Z,8.70
2023-05-03T06:11:51.537Z,9.53
2023-05-03T06:14:19.389Z,8.54
2023-05-03T06:16:46.435Z,9.25
2023-05-03T06:19:12.991Z,9.73
2023-05-03T06:21:39.494Z,10.07
2023-05-03T06:24:06.370Z,9.20
2023-05-03T06:26:33.011Z,10.03
2023-05-03T06:29:01.275Z,10.23
2023-05-03T06:31:28.068Z,10.64
2023-05-03T06:33:54.732Z,10.03
2023-05-03T06:36:22.218Z,10.46
2023-05-03T06:38:48.946Z,10.63
2023-05-03T06:41:15.493Z,10.96
2023-05-03T06:43:42.143Z,11.20
2023-05-03T06:46:08.844Z,10.73
2023-05-03T06:48:35.460Z,10.81
2023-05-03T06:51:02.036Z,9.95
2023-05-03T06:53:29.098Z,12.06
2023-05-03T06:55:57.450Z,12.60
2023-05-03T06:58:24.392Z,11.99
2023-05-03T07:00:54.086Z,11.61
2023-05-03T07:03:21.115Z,12.41
2023-05-03T07:05:48.349Z,11.10
2023-05-03T07:08:15.080Z,11.59
2023-05-03T07:10:41.934Z,11.48
2023-05-03T07:13:08.672Z,12.24
2023-05-03T07:15:35.387Z,12.27
2023-05-03T07:18:01.992Z,12.50
2023-05-03T07:20:29.402Z,10.33
2023-05-03T07:22:55.993Z,12.59
2023-05-03T07:25:22.569Z,11.01
2023-05-03T07:27:49.198Z,10.00
2023-05-03T07:30:16.003Z,12.16
2023-05-03T07:32:42.757Z,11.62
2023-05-03T07:35:09.778Z,13.00
2023-05-03T07:37:38.531Z,13.20
2023-05-03T07:40:07.166Z,12.57
2023-05-03T07:42:33.924Z,13.09
2023-05-03T07:45:01.193Z,12.58
2023-05-03T07:47:28.105Z,11.41
2023-05-03T07:49:54.930Z,13.96
2023-05-03T07:52:21.488Z,14.49
2023-05-03T07:54:48.026Z,14.75
2023-05-03T07:57:16.229Z,13.84
2023-05-03T07:59:43.532Z,15.49
2023-05-03T08:02:11.644Z,14.64
2023-05-03T08:04:38.708Z,15.54
2023-05-03T08:07:05.791Z,14.31
2023-05-03T08:09:32.462Z,12.72
2023-05-03T08:11:59.072Z,12.86
2023-05-03T08:14:25.842Z,11.38
2023-05-03T08:16:52.470Z,14.22
2023-05-03T08:19:19.129Z,16.24
2023-05-03T08:21:47.145Z,15.06
2023-05-03T08:24:16.025Z,14.06
2023-05-03T08:26:46.268Z,16.64
2023-05-03T08:29:13.386Z,15.37
2023-05-03T08:31:41.369Z,14.93
2023-05-03T08:34:11.112Z,15.04
2023-05-03T08:36:38.300Z,14.89
2023-05-03T08:39:08.088Z,16.76
2023-05-03T08:41:34.664Z,15.51
2023-05-03T08:44:02.202Z,16.59
2023-05-03T08:46:29.356Z,15.46
2023-05-03T08:48:56.285Z,15.93
2023-05-03T08:51:24.776Z,15.95
2023-05-03T08:53:52.801Z,15.48
2023-05-03T08:56:41.379Z,16.81
2023-05-03T08:59:09.117Z,16.08
2023-05-03T09:01:37.273Z,16.23
2023-05-03T09:04:04.392Z,16.61
2023-05-03T09:06:33.186Z,14.59
2023-05-03T09:09:00.996Z,13.68
2023-05-03T09:11:31.084Z,15.65
2023-05-03T09:14:15.493Z,14.32
2023-05-03T09:16:47.323Z,15.74
2023-05-03T09:19:15.866Z,18.62
2023-05-03T09:21:44.508Z,16.97
2023-05-03T09:24:19.026Z,16.86
2023-05-03T09:26:47.441Z,17.78
2023-05-03T09:29:35.986Z,18.97
2023-05-03T09:32:06.498Z,16.91
2023-05-03T09:34:34.076Z,15.99
2023-05-03T09:37:01.018Z,17.84
2023-05-03T09:39:27.719Z,20.09
2023-05-03T09:41:54.514Z,19.73
2023-05-03T09:44:42.771Z,20.13
2023-05-03T09:47:10.399Z,18.30
2023-05-03T09:49:38.470Z,16.34
2023-05-03T09:52:07.116Z,17.40
2023-05-03T09:54:37.842Z,16.28
2023-05-03T09:57:05.899Z,18.26
2023-05-03T09:59:33.986Z,17.10
2023-05-03T10:02:03.832Z,15.82
2023-05-03T10:04:39.163Z,16.62
2023-05-03T10:07:12.575Z,18.99
2023-05-03T10:09:42.782Z,16.77
2023-05-03T10:12:12.615Z,18.38
2023-05-03T10:14:44.545Z,18.00
2023-05-03T10:17:31.879Z,17.39
2023-05-03T10:20:32.612Z,18.11
2023-05-03T10:23:08.794Z,20.24
2023-05-03T10:25:37.187Z,19.16
2023-05-03T10:28:05.121Z,20.41
2023-05-03T10:30:34.881Z,19.91
2023-05-03T10:33:14.399Z,19.70
2023-05-03T10:35:45.329Z,21.10
2023-05-03T10:38:21.113Z,19.96
2023-05-03T10:40:48.122Z,19.30
2023-05-03T10:43:32.679Z,19.52
2023-05-03T10:45:59.766Z,21.41
2023-05-03T10:48:28.465Z,20.32
2023-05-03T10:50:56.242Z,17.53
2023-05-03T10:53:32.448Z,18.55
2023-05-03T10:56:05.870Z,19.52
2023-05-03T10:58:36.403Z,19.61
2023-05-03T11:01:04.897Z,17.28
2023-05-03T11:03:39.439Z,17.29
2023-05-03T11:06:07.352Z,16.32
2023-05-03T11:08:38.211Z,20.83
2023-05-03T11:11:10.045Z,22.32
2023-05-03T11:13:37.287Z,18.53
2023-05-03T11:16:06.391Z,19.39
2023-05-03T11:18:33.482Z,17.92
2023-05-03T11:21:00.229Z,18.36
2023-05-03T11:23:31.280Z,20.54
2023-05-03T11:25:58.346Z,20.88
2023-05-03T11:28:26.225Z,17.36
2023-05-03T11:30:53.186Z,17.70
2023-05-03T11:33:19.958Z,18.48
2023-05-03T11:35:48.206Z,21.05
2023-05-03T11:38:14.793Z,19.48
2023-05-03T11:40:41.722Z,20.88
2023-05-03T11:43:08.507Z,19.95
2023-05-03T11:45:41.038Z,20.43
2023-05-03T11:48:08.313Z,20.19
2023-05-03T11:50:48.344Z,20.86
2023-05-03T11:53:16.176Z,18.74
2023-05-03T11:55:48.291Z,19.33
2023-05-03T11:58:14.924Z,18.86
2023-05-03T12:00:46.726Z,18.97
2023-05-03T12:03:32.432Z,19.88
2023-05-03T12:06:01.839Z,19.10
2023-05-03T12:08:32.369Z,18.09
2023-05-03T12:11:03.208Z,20.08
2023-05-03T12:13:39.744Z,18.85
2023-05-03T12:16:13.355Z,17.15
2023-05-03T12:18:50.608Z,21.82
2023-05-03T12:23:55.636Z,18.99
2023-05-03T12:26:23.473Z,20.31
2023-05-03T12:28:50.690Z,18.91
2023-05-03T12:31:22.968Z,18.54
2023-05-03T12:34:12.233Z,21.31
2023-05-03T12:36:38.620Z,18.56
2023-05-03T12:39:10.026Z,18.14
2023-05-03T12:44:10.107Z,17.72
2023-05-03T12:46:38.514Z,19.40
2023-05-03T12:49:07.957Z,18.78
2023-05-03T12:51:36.324Z,19.22
2023-05-03T12:54:10.174Z,18.73
2023-05-03T12:56:40.332Z,18.36
2023-05-03T12:59:39.378Z,20.25
2023-05-03T13:04:55.925Z,17.90
2023-05-03T13:07:17.139Z,17.93
2023-05-03T13:12:33.396Z,17.90
2023-05-03T13:15:03.682Z,18.42
2023-05-03T13:17:31.623Z,18.57
2023-05-03T13:19:58.385Z,17.93
2023-05-03T13:22:25.010Z,17.80
2023-05-03T13:24:51.547Z,16.46
2023-05-03T13:27:18.289Z,16.24
2023-05-03T13:29:46.843Z,15.75
2023-05-03T13:32:15.213Z,15.51
2023-05-03T13:34:41.755Z,16.01
2023-05-03T13:37:08.353Z,15.61
2023-05-03T13:39:34.976Z,15.12
2023-05-03T13:42:02.416Z,14.57
2023-05-03T13:44:29.168Z,15.77
2023-05-03T13:46:56.498Z,15.48
2023-05-03T13:49:23.308Z,15.48
2023-05-03T13:51:49.922Z,14.99
2023-05-03T13:54:17.103Z,15.72
2023-05-03T13:56:44.012Z,15.35
2023-05-03T13:59:13.941Z,15.15
2023-05-03T14:01:41.311Z,15.06
2023-05-03T14:04:08.245Z,15.04
2023-05-03T14:06:35.024Z,15.42
2023-05-03T14:09:02.528Z,15.41
2023-05-03T14:11:30.587Z,15.34
2023-05-03T14:13:58.661Z,14.71
2023-05-03T14:16:39.930Z,15.19
2023-05-03T14:19:07.882Z,14.47
2023-05-03T14:21:34.600Z,14.86
2023-05-03T14:24:01.623Z,14.79
2023-05-03T14:26:29.549Z,14.97
2023-05-03T14:28:57.284Z,14.21
2023-05-03T14:31:24.086Z,15.17
2023-05-03T14:33:50.742Z,15.11
2023-05-03T14:36:17.441Z,15.32
2023-05-03T14:38:44.127Z,15.11
2023-05-03T14:41:10.964Z,15.43
2023-05-03T14:43:37.859Z,15.15
2023-05-03T14:46:04.593Z,15.18
2023-05-03T14:48:31.165Z,14.62
2023-05-03T14:50:57.811Z,14.84
2023-05-03T14:53:24.476Z,15.16
2023-05-03T14:55:51.436Z,15.01
2023-05-03T14:58:18.645Z,14.88
2023-05-03T15:00:45.722Z,14.96
2023-05-03T15:03:13.877Z,14.95
2023-05-03T15:05:48.359Z,14.75
2023-05-03T15:08:16.793Z,14.92
2023-05-03T15:10:44.966Z,15.10
2023-05-03T15:13:12.699Z,14.70
2023-05-03T15:15:40.534Z,14.97
2023-05-03T15:18:09.059Z,15.07
2023-05-03T15:20:36.299Z,14.66
2023-05-03T15:23:03.958Z,14.43
2023-05-03T15:25:31.076Z,15.22
2023-05-03T15:27:57.657Z,14.93
2023-05-03T15:30:24.970Z,14.78
2023-05-03T15:32:51.861Z,15.05
2023-05-03T15:35:18.457Z,14.92
2023-05-03T15:37:45.192Z,14.97
2023-05-03T15:40:13.331Z,14.83
2023-05-03T15:42:39.988Z,14.84
2023-05-03T15:45:09.591Z,15.01
2023-05-03T15:47:36.330Z,15.00
2023-05-03T15:50:03.819Z,14.47
2023-05-03T15:52:31.018Z,14.74
2023-05-03T15:54:58.399Z,15.15
2023-05-03T15:57:25.016Z,15.10
2023-05-03T15:59:51.636Z,14.66
2023-05-03T16:02:18.212Z,14.13
2023-05-03T16:04:44.889Z,14.49
2023-05-03T16:07:12.609Z,14.64
2023-05-03T16:09:39.647Z,14.78
2023-05-03T16:12:07.409Z,14.53
2023-05-03T16:14:34.294Z,14.36
2023-05-03T16:17:02.236Z,14.84
2023-05-03T16:19:29.261Z,15.00
2023-05-03T16:21:56.190Z,14.48
2023-05-03T16:24:22.907Z,14.19
2023-05-03T16:26:50.925Z,14.64
2023-05-03T16:29:18.084Z,14.36
2023-05-03T16:31:46.492Z,14.73
2023-05-03T16:34:13.777Z,14.62
2023-05-03T16:36:44.077Z,14.40
2023-05-03T16:39:12.410Z,14.38
2023-05-03T16:41:39.535Z,14.21
2023-05-03T16:44:08.012Z,14.27
2023-05-03T16:46:36.156Z,14.27
2023-05-03T16:49:03.814Z,14.34
2023-05-03T16:51:31.661Z,14.38
2023-05-03T16:53:59.576Z,14.29
2023-05-03T16:56:28.657Z,14.14
2023-05-03T16:58:56.443Z,13.93
2023-05-03T17:01:23.082Z,14.29
2023-05-03T17:03:50.254Z,14.28
2023-05-03T17:06:18.356Z,14.03
2023-05-03T17:08:45.457Z,14.27
2023-05-03T17:11:13.924Z,14.07
2023-05-03T17:13:40.843Z,14.25
2023-05-03T17:16:08.922Z,14.18
2023-05-03T17:18:37.765Z,14.04
2023-05-03T17:21:05.127Z,13.92
2023-05-03T17:23:36.224Z,13.95
2023-05-03T17:26:04.665Z,13.89
2023-05-03T17:28:32.801Z,13.88
2023-05-03T17:31:00.065Z,13.65
2023-05-03T17:33:27.085Z,13.62
2023-05-03T17:35:55.584Z,13.60
2023-05-03T17:38:23.316Z,13.69
2023-05-03T17:40:49.898Z,13.50
2023-05-03T17:43:17.729Z,13.66
2023-05-03T17:45:45.967Z,13.56
2023-05-03T17:48:13.207Z,13.52
2023-05-03T17:50:41.646Z,13.48
2023-05-03T17:53:09.753Z,13.35
2023-05-03T17:55:38.195Z,13.31
2023-05-03T17:58:06.284Z,12.90
2023-05-03T18:00:33.735Z,13.18
2023-05-03T18:03:00.890Z,12.97
2023-05-03T18:05:28.073Z,12.97
2023-05-03T18:07:54.726Z,12.88
2023-05-03T18:10:22.292Z,12.69
2023-05-03T18:12:49.124Z,12.69
2023-05-03T18:15:16.172Z,12.45
2023-05-03T18:17:43.473Z,12.56
2023-05-03T18:20:10.664Z,12.60
2023-05-03T18:22:38.134Z,12.50
2023-05-03T18:25:07.962Z,12.51
2023-05-03T18:27:37.590Z,12.36
2023-05-03T18:30:06.753Z,12.34
2023-05-03T18:32:34.032Z,12.21
2023-05-03T18:35:01.177Z,12.18
2023-05-03T18:37:27.890Z,12.03
2023-05-03T18:39:57.250Z,11.79
2023-05-03T18:42:23.927Z,11.97
2023-05-03T18:44:50.541Z,11.91
2023-05-03T18:47:21.835Z,11.85
2023-05-03T18:49:53.084Z,11.78
2023-05-03T18:52:21.001Z,11.50
2023-05-03T18:54:48.030Z,11.50
2023-05-03T18:57:14.776Z,11.62
2023-05-03T18:59:52.349Z,11.63
2023-05-03T19:02:25.393Z,11.35
2023-05-03T19:04:52.678Z,11.24
2023-05-03T19:07:19.443Z,11.08
2023-05-03T19:09:45.955Z,11.30
2023-05-03T19:12:13.602Z,10.92
2023-05-03T19:14:42.991Z,11.12
2023-05-03T19:17:09.606Z,10.82
2023-05-03T19:19:36.268Z,10.93
2023-05-03T19:22:04.137Z,11.03
2023-05-03T19:24:31.458Z,10.96
2023-05-03T19:26:58.171Z,10.86
2023-05-03T19:29:24.880Z,10.81
2023-05-03T19:31:54.198Z,10.63
2023-05-03T19:34:20.899Z,10.67
2023-05-03T19:36:47.461Z,10.30
2023-05-03T19:39:14.052Z,10.52
2023-05-03T19:41:40.544Z,10.41
2023-05-03T19:44:07.181Z,10.43
2023-05-03T19:46:34.372Z,10.20
2023-05-03T19:49:01.768Z,10.19
2023-05-03T19:51:28.588Z,10.17
2023-05-03T19:53:56.369Z,10.29
2023-05-03T19:56:23.379Z,10.20
2023-05-03T19:58:50.805Z,10.18
2023-05-03T20:01:17.609Z,10.01
2023-05-03T20:03:44.618Z,10.12
2023-05-03T20:06:11.272Z,9.83
2023-05-03T20:08:37.840Z,10.01
2023-05-03T20:11:04.478Z,9.78
2023-05-03T20:13:31.256Z,9.85
2023-05-03T20:15:57.938Z,9.65
2023-05-03T20:18:24.561Z,9.73
2023-05-03T20:20:51.256Z,9.56
2023-05-03T20:23:18.094Z,9.19
2023-05-03T20:25:44.720Z,9.39
2023-05-03T20:28:11.278Z,9.19
2023-05-03T20:30:37.882Z,9.31
2023-05-03T20:33:04.763Z,9.02
2023-05-03T20:35:31.535Z,9.03
2023-05-03T20:37:58.269Z,8.50
2023-05-03T20:40:25.277Z,9.07
2023-05-03T20:42:51.906Z,8.99
2023-05-03T20:45:18.606Z,9.00
2023-05-03T20:47:45.406Z,8.90
2023-05-03T20:50:12.003Z,8.96
2023-05-03T20:52:38.689Z,8.89
2023-05-03T20:55:05.552Z,8.52
2023-05-03T20:57:32.156Z,8.60
2023-05-03T21:00:00.034Z,8.67
2023-05-03T21:02:26.877Z,8.85
2023-05-03T21:04:53.466Z,8.72
2023-05-03T21:07:22.608Z,8.74
2023-05-03T21:09:49.189Z,8.67
2023-05-03T21:12:15.811Z,8.50
2023-05-03T21:14:42.453Z,8.44
2023-05-03T21:17:09.930Z,8.61
2023-05-03T21:19:36.429Z,8.51
2023-05-03T21:22:02.925Z,8.47
2023-05-03T21:24:31.033Z,8.37
2023-05-03T21:26:58.807Z,8.21
2023-05-03T21:29:25.407Z,8.13
2023-05-03T21:31:52.482Z,7.97
2023-05-03T21:34:19.251Z,8.08
2023-05-03T21:36:45.748Z,7.92
2023-05-03T21:39:12.581Z,7.62
2023-05-03T21:41:39.323Z,7.74
2023-05-03T21:44:05.987Z,7.93
2023-05-03T21:46:33.221Z,8.01
2023-05-03T21:48:59.813Z,7.79
2023-05-03T21:51:26.883Z,7.68
2023-05-03T21:53:53.513Z,7.63
2023-05-03T21:56:20.220Z,7.44
2023-05-03T21:58:46.814Z,7.41
2023-05-03T22:01:16.315Z,7.32
2023-05-03T22:03:43.067Z,7.18
2023-05-03T22:06:09.750Z,7.06
2023-05-03T22:08:36.914Z,6.88
2023-05-03T22:11:07.324Z,7.04
2023-05-03T22:13:43.179Z,7.01
2023-05-03T22:16:18.341Z,6.94
2023-05-03T22:18:45.000Z,6.71
2023-05-03T22:21:11.672Z,6.68
2023-05-03T22:23:38.362Z,6.72
2023-05-03T22:26:04.961Z,6.93
2023-05-03T22:28:31.628Z,6.92
2023-05-03T22:30:58.298Z,6.91
2023-05-03T22:33:25.092Z,6.86
2023-05-03T22:35:52.361Z,6.66
2023-05-03T22:38:18.927Z,6.65
2023-05-03T22:40:46.406Z,6.87
2023-05-03T22:43:12.943Z,6.63
2023-05-03T22:45:39.475Z,6.59
2023-05-03T22:48:06.248Z,6.61
2023-05-03T22:50:32.840Z,6.66
2023-05-03T22:52:59.398Z,6.77
2023-05-03T22:55:26.281Z,6.89
2023-05-03T22:57:52.887Z,6.91
2023-05-03T23:00:21.421Z,6.62
2023-05-03T23:02:48.718Z,6.86
2023-05-03T23:05:15.836Z,6.60
2023-05-03T23:07:43.687Z,6.86
2023-05-03T23:10:11.108Z,6.61
2023-05-03T23:12:38.233Z,6.87
2023-05-03T23:15:06.014Z,6.67
2023-05-03T23:17:32.580Z,6.86
2023-05-03T23:19:59.687Z,6.75
2023-05-03T23:22:26.258Z,6.72
2023-05-03T23:24:52.847Z,6.68
2023-05-03T23:27:19.363Z,6.67
2023-05-03T23:29:48.143Z,6.62
2023-05-03T23:32:15.296Z,6.44
2023-05-03T23:34:42.866Z,6.36
2023-05-03T23:37:09.566Z,6.35
2023-05-03T23:39:36.576Z,6.48
2023-05-03T23:42:03.279Z,6.26
2023-05-03T23:44:42.199Z,6.39
2023-05-03T23:47:16.472Z,6.36
2023-05-03T23:49:42.998Z,6.40
2023-05-03T23:52:09.940Z,6.13
2023-05-03T23:54:36.709Z,6.30
2023-05-03T23:57:03.329Z,6.02
2023-05-03T23:59:29.887Z,6.17
